Time;durP1;ratioP1;P1;durP2;ratioP2;P2;SDS_P1;SDS_P2;PMS_P1;PMS_P2;Temp;Humidity;BMP_temperature;BMP_pressure;BME280_temperature;BME280_humidity;BME280_pressure;Samples;Min_cycle;Max_cycle;Signal;HPM_P1;HPM_P2
2023/10/27 00:01:53;;;;;;;14.50;2.15;;;21.30;99.90;;;;;;5092397;28;20028;-74
2023/10/27 00:04:20;;;;;;;16.98;3.33;;;21.20;99.90;;;;;;5092699;28;20031;-73
2023/10/27 00:06:46;;;;;;;14.23;3.00;;;21.20;99.90;;;;;;5092057;28;20028;-73
2023/10/27 00:09:14;;;;;;;16.38;2.58;;;21.20;99.90;;;;;;5091883;28;20376;-71
2023/10/27 00:11:41;;;;;;;16.40;2.92;;;21.10;99.90;;;;;;5091906;28;20048;-71
2023/10/27 00:14:07;;;;;;;16.33;3.08;;;21.10;99.90;;;;;;5092083;28;20672;-73
2023/10/27 00:16:33;;;;;;;18.52;2.78;;;21.10;99.90;;;;;;5089303;28;20043;-71
2023/10/27 00:18:59;;;;;;;14.88;2.65;;;21.10;99.90;;;;;;5091996;28;20020;-72
2023/10/27 00:21:25;;;;;;;16.40;2.75;;;21.10;99.90;;;;;;5091431;28;20056;-71
2023/10/27 00:23:51;;;;;;;13.73;2.83;;;21.10;99.90;;;;;;5091981;28;20017;-71
2023/10/27 00:26:18;;;;;;;17.70;2.83;;;21.10;99.90;;;;;;5091841;28;20028;-72
2023/10/27 00:28:45;;;;;;;16.85;3.40;;;21.00;99.90;;;;;;5073204;28;20020;-72
2023/10/27 00:31:11;;;;;;;12.77;3.45;;;21.00;99.90;;;;;;5091086;28;20020;-72
2023/10/27 00:33:37;;;;;;;15.93;2.88;;;20.90;99.90;;;;;;5091420;28;20063;-72
2023/10/27 00:36:04;;;;;;;15.55;2.30;;;20.90;99.90;;;;;;5091789;28;20020;-72
2023/10/27 00:38:30;;;;;;;11.50;2.60;;;20.90;99.90;;;;;;5073419;28;20423;-72
2023/10/27 00:40:56;;;;;;;14.52;2.38;;;20.90;99.90;;;;;;5092034;28;20107;-72
2023/10/27 00:43:23;;;;;;;17.23;2.75;;;20.90;99.90;;;;;;5107347;28;20089;-73
2023/10/27 00:45:51;;;;;;;18.13;2.90;;;20.90;99.90;;;;;;5091631;28;20024;-72
2023/10/27 00:48:21;;;;;;;12.35;2.38;;;20.80;99.90;;;;;;5091632;28;20431;-72
2023/10/27 00:50:48;;;;;;;11.07;2.35;;;20.80;99.90;;;;;;5091736;28;20077;-72
2023/10/27 00:53:18;;;;;;;16.67;3.45;;;20.80;99.90;;;;;;5093019;28;20107;-72
2023/10/27 00:55:45;;;;;;;25.33;3.08;;;20.80;99.90;;;;;;5092359;28;20421;-72
2023/10/27 00:58:13;;;;;;;14.50;2.80;;;20.80;99.90;;;;;;5090927;28;20031;-72
2023/10/27 01:00:40;;;;;;;13.77;2.80;;;20.80;99.90;;;;;;5091358;28;20128;-72
2023/10/27 01:03:06;;;;;;;15.50;2.78;;;20.80;99.90;;;;;;5073218;28;20044;-72
2023/10/27 01:05:32;;;;;;;21.48;3.00;;;20.80;99.90;;;;;;5091839;28;20024;-72
2023/10/27 01:07:59;;;;;;;15.60;3.05;;;20.90;99.90;;;;;;5091742;28;20028;-71
2023/10/27 01:10:26;;;;;;;13.88;2.53;;;20.90;99.90;;;;;;5091514;28;20027;-70
2023/10/27 01:12:52;;;;;;;15.73;2.85;;;20.90;99.90;;;;;;5091705;28;20120;-73
2023/10/27 01:15:19;;;;;;;13.80;2.63;;;20.90;99.90;;;;;;5091324;28;20031;-72
2023/10/27 01:17:46;;;;;;;17.05;3.15;;;20.90;99.90;;;;;;5091151;28;20191;-72
2023/10/27 01:20:12;;;;;;;17.30;2.53;;;20.90;99.90;;;;;;5106610;28;20075;-72
2023/10/27 01:22:45;;;;;;;14.98;2.83;;;20.80;99.90;;;;;;5091604;28;20077;-72
2023/10/27 01:25:12;;;;;;;14.52;2.67;;;20.80;99.90;;;;;;5091341;28;20107;-72
2023/10/27 01:27:38;;;;;;;18.05;3.15;;;20.80;99.90;;;;;;5091049;28;20126;-71
2023/10/27 01:30:05;;;;;;;13.43;2.75;;;20.80;99.90;;;;;;5090893;28;20027;-71
2023/10/27 01:32:31;;;;;;;12.73;2.67;;;20.80;99.90;;;;;;5091158;28;20071;-71
2023/10/27 01:34:57;;;;;;;14.95;2.42;;;20.70;99.90;;;;;;5091289;28;20490;-71
2023/10/27 01:37:23;;;;;;;15.95;3.10;;;20.70;99.90;;;;;;5091067;28;20459;-72
2023/10/27 01:39:49;;;;;;;15.10;2.38;;;20.70;99.90;;;;;;5091224;28;20436;-72
2023/10/27 01:42:15;;;;;;;19.92;3.05;;;20.70;99.90;;;;;;5090939;28;20048;-72
2023/10/27 01:44:41;;;;;;;16.20;2.72;;;20.70;99.90;;;;;;5091156;28;20055;-72
2023/10/27 01:47:07;;;;;;;14.93;2.45;;;20.70;99.90;;;;;;5091623;28;20029;-71
2023/10/27 01:49:33;;;;;;;14.52;2.70;;;20.60;99.90;;;;;;5091477;28;20073;-71
2023/10/27 01:51:59;;;;;;;13.45;2.35;;;20.60;99.90;;;;;;5091310;28;20123;-73
2023/10/27 01:54:25;;;;;;;13.70;2.50;;;20.60;99.90;;;;;;5091140;28;20144;-70
2023/10/27 01:56:51;;;;;;;15.48;2.67;;;20.60;99.90;;;;;;5106505;28;20028;-71
2023/10/27 01:59:17;;;;;;;21.30;2.63;;;20.60;99.90;;;;;;5091208;28;20104;-71
2023/10/27 02:01:44;;;;;;;19.25;3.05;;;20.60;99.90;;;;;;5090606;28;20039;-71
2023/10/27 02:04:10;;;;;;;16.27;3.00;;;20.60;99.90;;;;;;5090849;28;20107;-71
2023/10/27 02:06:36;;;;;;;10.05;2.58;;;20.60;99.90;;;;;;5090527;28;20042;-71
2023/10/27 02:09:02;;;;;;;15.65;2.58;;;20.60;99.90;;;;;;5090768;28;20482;-72
2023/10/27 02:11:28;;;;;;;17.67;2.60;;;20.60;99.90;;;;;;5094278;28;20498;-72
2023/10/27 02:13:54;;;;;;;10.07;2.40;;;20.60;99.90;;;;;;5094369;28;20490;-71
2023/10/27 02:16:20;;;;;;;12.27;2.65;;;20.60;99.90;;;;;;5093922;28;20424;-72
2023/10/27 02:18:46;;;;;;;16.88;2.75;;;20.50;99.90;;;;;;5094344;28;20051;-73
2023/10/27 02:21:12;;;;;;;16.27;2.67;;;20.50;99.90;;;;;;5093995;28;20105;-72
2023/10/27 02:23:38;;;;;;;11.57;2.53;;;20.50;99.90;;;;;;5109507;28;20379;-72
2023/10/27 02:26:04;;;;;;;14.80;2.28;;;20.50;99.90;;;;;;5075578;28;20432;-72
2023/10/27 02:28:30;;;;;;;11.52;2.65;;;20.40;99.90;;;;;;5093873;28;20028;-73
2023/10/27 02:30:56;;;;;;;13.35;2.40;;;20.50;99.90;;;;;;5093736;28;20094;-71
2023/10/27 02:33:22;;;;;;;22.15;3.28;;;20.40;99.90;;;;;;5094181;28;20422;-72
2023/10/27 02:35:48;;;;;;;12.40;2.58;;;20.40;99.90;;;;;;5093727;28;20551;-71
2023/10/27 02:38:14;;;;;;;14.32;2.65;;;20.40;99.90;;;;;;5093505;28;20111;-72
2023/10/27 02:40:40;;;;;;;14.10;3.08;;;20.40;99.90;;;;;;5093667;28;20403;-73
2023/10/27 02:43:07;;;;;;;12.43;2.83;;;20.30;99.90;;;;;;5075318;28;20028;-71
2023/10/27 02:45:33;;;;;;;13.30;2.60;;;20.30;99.90;;;;;;5093856;28;20031;-71
2023/10/27 02:47:59;;;;;;;18.55;3.08;;;20.30;99.90;;;;;;5093799;28;20024;-70
2023/10/27 02:50:25;;;;;;;12.88;2.25;;;20.30;99.90;;;;;;5093612;28;20107;-72
2023/10/27 02:52:51;;;;;;;13.10;2.47;;;20.30;99.90;;;;;;5093427;28;20110;-72
2023/10/27 02:55:18;;;;;;;22.67;3.20;;;20.30;99.90;;;;;;5108971;28;20377;-71
2023/10/27 02:57:45;;;;;;;18.17;3.70;;;20.30;99.90;;;;;;5093889;28;20036;-72
2023/10/27 03:00:11;;;;;;;;;;;20.30;99.90;;;;;;5094061;28;20085;-71
2023/10/27 03:02:37;;;;;;;17.15;3.10;;;20.30;99.90;;;;;;5093935;28;19912;-71
2023/10/27 03:05:03;;;;;;;10.07;2.55;;;20.30;99.90;;;;;;5094066;28;20093;-72
2023/10/27 03:07:29;;;;;;;15.45;2.72;;;20.30;99.90;;;;;;5093777;28;20471;-71
2023/10/27 03:09:55;;;;;;;10.18;2.53;;;20.30;99.90;;;;;;5075400;28;20031;-72
2023/10/27 03:12:21;;;;;;;13.23;2.50;;;20.30;99.90;;;;;;5075223;28;20032;-71
2023/10/27 03:14:47;;;;;;;10.98;2.70;;;20.30;99.90;;;;;;5093620;28;20016;-71
2023/10/27 03:17:13;;;;;;;15.13;2.58;;;20.30;99.90;;;;;;5093858;28;20357;-71
2023/10/27 03:19:39;;;;;;;12.90;2.80;;;20.30;99.90;;;;;;5093840;28;20103;-72
2023/10/27 03:22:05;;;;;;;16.98;2.78;;;20.20;99.90;;;;;;5092994;28;20104;-72
2023/10/27 03:24:31;;;;;;;9.25;2.00;;;20.20;99.90;;;;;;5076045;28;20024;-71
2023/10/27 03:26:57;;;;;;;12.85;1.98;;;20.10;99.90;;;;;;5076081;28;20464;-71
2023/10/27 03:29:23;;;;;;;14.32;2.70;;;20.20;99.90;;;;;;5094124;28;20035;-72
2023/10/27 03:31:50;;;;;;;14.93;2.78;;;20.20;99.90;;;;;;5093774;28;20040;-71
2023/10/27 03:34:16;;;;;;;14.90;3.05;;;20.20;99.90;;;;;;5075544;28;20518;-72
2023/10/27 03:36:42;;;;;;;;;;;20.20;99.90;;;;;;5094572;28;20024;-72
2023/10/27 03:39:08;;;;;;;19.70;2.53;;;20.10;99.90;;;;;;5093927;28;19973;-72
2023/10/27 03:41:34;;;;;;;11.30;2.72;;;19.90;99.90;;;;;;5094122;28;20127;-71
2023/10/27 03:44:00;;;;;;;11.98;2.80;;;19.90;99.90;;;;;;5093862;28;20020;-71
2023/10/27 03:46:26;;;;;;;14.68;2.78;;;19.90;99.90;;;;;;5093617;28;20055;-72
2023/10/27 03:48:52;;;;;;;13.32;2.95;;;19.90;99.90;;;;;;5093783;28;20432;-72
2023/10/27 03:51:18;;;;;;;15.05;2.80;;;19.90;99.90;;;;;;5093836;28;20531;-72
2023/10/27 03:53:44;;;;;;;14.98;3.40;;;19.90;99.90;;;;;;5094099;28;20048;-72
2023/10/27 03:56:10;;;;;;;15.07;2.60;;;19.90;99.90;;;;;;5094025;28;20129;-72
2023/10/27 03:58:37;;;;;;;19.15;2.97;;;19.90;99.90;;;;;;5109520;28;20123;-70
2023/10/27 04:01:04;;;;;;;;;;;19.80;99.90;;;;;;5075796;28;20028;-71
2023/10/27 04:03:31;;;;;;;15.27;2.72;;;19.80;99.90;;;;;;5075453;28;19904;-72
2023/10/27 04:05:59;;;;;;;11.35;2.50;;;19.90;99.90;;;;;;5086828;28;20070;-72
2023/10/27 04:08:25;;;;;;;13.98;2.58;;;20.00;99.90;;;;;;5075414;28;20060;-70
2023/10/27 04:10:52;;;;;;;16.10;2.55;;;20.00;99.90;;;;;;5068175;28;20032;-71
2023/10/27 04:13:17;;;;;;;;;;;20.10;99.90;;;;;;5073773;28;20527;-72
2023/10/27 04:15:47;;;;;;;13.00;2.20;;;20.00;99.90;;;;;;5078235;28;20027;-73
2023/10/27 04:18:17;;;;;;;12.90;2.60;;;20.00;99.90;;;;;;5074775;28;20028;-71
2023/10/27 04:20:43;;;;;;;15.50;2.25;;;20.00;99.90;;;;;;5059748;28;20033;-72
2023/10/27 04:23:09;;;;;;;11.85;2.20;;;20.00;99.90;;;;;;5035644;28;20073;-72
2023/10/27 04:25:36;;;;;;;10.38;2.03;;;20.00;99.90;;;;;;5032534;28;20060;-72
2023/10/27 04:28:03;;;;;;;;;;;20.00;99.90;;;;;;5047402;28;20031;-72
2023/10/27 04:30:31;;;;;;;11.27;2.88;;;20.00;99.90;;;;;;5051741;28;19911;-73
2023/10/27 04:32:58;;;;;;;12.23;2.60;;;20.10;99.90;;;;;;5046990;28;20358;-71
2023/10/27 04:35:24;;;;;;;13.85;2.70;;;20.00;99.90;;;;;;5044918;28;20478;-71
2023/10/27 04:37:52;;;;;;;17.33;2.75;;;20.00;99.90;;;;;;5041718;28;20048;-70
2023/10/27 04:40:18;;;;;;;13.98;2.75;;;20.00;99.90;;;;;;5048437;28;20060;-72
2023/10/27 04:42:44;;;;;;;11.35;2.45;;;20.10;99.90;;;;;;5041266;28;20029;-72
2023/10/27 04:45:11;;;;;;;12.77;2.50;;;20.10;99.90;;;;;;5033508;28;20029;-72
2023/10/27 04:47:38;;;;;;;11.73;2.17;;;20.10;99.90;;;;;;5033692;28;20041;-72
2023/10/27 04:50:05;;;;;;;11.88;2.53;;;20.10;99.90;;;;;;5033249;28;20033;-72
2023/10/27 04:52:31;;;;;;;13.77;2.60;;;20.10;99.90;;;;;;5033699;28;20363;-73
2023/10/27 04:54:58;;;;;;;18.08;2.60;;;20.10;99.90;;;;;;5033263;28;20043;-73
2023/10/27 04:57:24;;;;;;;16.05;2.78;;;20.10;99.90;;;;;;5032984;28;20026;-72
2023/10/27 04:59:50;;;;;;;14.80;2.85;;;20.10;99.90;;;;;;5032916;28;20112;-73
2023/10/27 05:02:16;;;;;;;10.73;2.45;;;20.10;99.90;;;;;;5032931;28;20457;-72
2023/10/27 05:04:42;;;;;;;12.07;2.47;;;20.20;99.90;;;;;;5039285;28;20025;-72
2023/10/27 05:07:10;;;;;;;17.15;2.78;;;20.10;99.90;;;;;;5047569;28;20044;-73
2023/10/27 05:09:36;;;;;;;14.95;2.70;;;20.20;99.90;;;;;;5044071;28;20389;-72
2023/10/27 05:12:03;;;;;;;14.73;2.80;;;20.20;99.90;;;;;;5045876;28;20186;-72
2023/10/27 05:14:32;;;;;;;17.25;2.63;;;20.20;99.90;;;;;;5043652;28;20062;-70
2023/10/27 05:16:58;;;;;;;12.50;2.80;;;20.20;99.90;;;;;;5050699;28;20028;-69
2023/10/27 05:19:25;;;;;;;19.13;2.40;;;20.20;99.90;;;;;;5053085;28;20465;-72
2023/10/27 05:21:51;;;;;;;15.65;2.83;;;20.20;99.90;;;;;;5085876;28;20082;-72
2023/10/27 05:24:17;;;;;;;19.02;2.55;;;20.20;99.90;;;;;;5093533;28;20032;-72
2023/10/27 05:26:43;;;;;;;14.00;2.45;;;20.30;99.90;;;;;;5092988;28;20063;-71
2023/10/27 05:29:10;;;;;;;14.10;3.05;;;20.30;99.90;;;;;;5073849;28;20042;-73
2023/10/27 05:31:35;;;;;;;;;;;20.20;99.90;;;;;;5092410;28;20460;-72
2023/10/27 05:34:02;;;;;;;20.42;3.05;;;20.20;99.90;;;;;;5091900;28;19994;-72
2023/10/27 05:36:28;;;;;;;14.93;2.92;;;20.20;99.90;;;;;;5092067;28;20063;-71
2023/10/27 05:38:55;;;;;;;10.43;2.53;;;20.20;99.90;;;;;;5092072;28;20047;-73
2023/10/27 05:41:21;;;;;;;12.43;3.10;;;20.20;99.90;;;;;;5092058;28;20028;-70
2023/10/27 05:43:50;;;;;;;13.77;2.55;;;20.30;99.90;;;;;;5093107;28;20102;-72
2023/10/27 05:46:18;;;;;;;16.48;2.30;;;20.30;99.90;;;;;;5095513;28;20032;-69
2023/10/27 05:48:44;;;;;;;13.68;2.60;;;20.40;99.90;;;;;;5095659;28;20023;-72
2023/10/27 05:51:10;;;;;;;18.20;3.00;;;20.40;99.90;;;;;;5095210;28;20036;-72
2023/10/27 05:53:36;;;;;;;18.13;3.38;;;20.40;99.90;;;;;;5094967;28;20081;-74
2023/10/27 05:56:02;;;;;;;17.13;2.95;;;20.40;99.90;;;;;;5095178;28;20024;-72
2023/10/27 05:58:32;;;;;;;11.63;3.33;;;20.60;99.90;;;;;;5095128;28;20042;-70
2023/10/27 06:00:59;;;;;;;17.92;3.10;;;20.70;99.90;;;;;;5095362;28;20024;-73
2023/10/27 06:03:25;;;;;;;15.15;3.08;;;20.70;99.90;;;;;;5095872;28;20487;-72
2023/10/27 06:05:54;;;;;;;12.23;2.60;;;20.90;99.90;;;;;;5095742;28;20375;-71
2023/10/27 06:08:20;;;;;;;16.38;3.35;;;21.20;99.90;;;;;;5094761;28;20024;-69
2023/10/27 06:10:46;;;;;;;19.52;3.10;;;21.40;99.90;;;;;;5095443;28;20466;-72
2023/10/27 06:13:14;;;;;;;16.08;2.88;;;21.70;99.90;;;;;;5096727;28;20047;-72
2023/10/27 06:15:41;;;;;;;18.23;2.75;;;22.20;99.90;;;;;;5095489;28;20362;-72
2023/10/27 06:18:07;;;;;;;17.23;2.50;;;22.40;99.90;;;;;;5095733;28;20340;-72
2023/10/27 06:20:33;;;;;;;27.48;3.53;;;22.80;99.90;;;;;;5095823;28;20028;-72
2023/10/27 06:22:59;;;;;;;27.17;4.43;;;23.30;99.90;;;;;;5096184;28;20421;-72
2023/10/27 06:25:25;;;;;;;17.15;2.83;;;23.60;99.90;;;;;;5069644;28;20036;-74
2023/10/27 06:27:54;;;;;;;17.63;3.17;;;23.80;99.90;;;;;;5075742;28;20025;-73
2023/10/27 06:30:21;;;;;;;18.55;3.90;;;24.30;99.90;;;;;;5074688;28;20059;-71
2023/10/27 06:32:48;;;;;;;21.33;3.80;;;23.80;99.90;;;;;;5075048;28;20491;-73
2023/10/27 06:35:14;;;;;;;25.00;3.20;;;23.60;99.90;;;;;;5077688;28;20472;-69
2023/10/27 06:37:40;;;;;;;19.85;4.25;;;23.90;99.90;;;;;;5095237;28;20096;-72
2023/10/27 06:40:07;;;;;;;19.40;3.60;;;24.10;99.90;;;;;;5076897;28;20118;-72
2023/10/27 06:42:33;;;;;;;20.85;3.33;;;23.80;99.90;;;;;;5095040;28;20020;-72
2023/10/27 06:45:00;;;;;;;22.85;3.10;;;23.80;99.90;;;;;;5094707;28;20122;-71
2023/10/27 06:47:27;;;;;;;19.65;3.85;;;23.90;99.90;;;;;;5094223;28;20062;-70
2023/10/27 06:49:53;;;;;;;19.58;3.00;;;23.70;99.90;;;;;;5094271;28;20038;-70
2023/10/27 06:52:19;;;;;;;21.15;3.10;;;23.60;99.90;;;;;;5094542;28;20040;-72
2023/10/27 06:54:46;;;;;;;19.27;2.80;;;23.50;99.90;;;;;;5093967;28;20028;-70
2023/10/27 06:57:12;;;;;;;24.85;4.05;;;23.50;99.90;;;;;;5094348;28;20031;-71
2023/10/27 06:59:38;;;;;;;19.65;3.13;;;23.50;99.90;;;;;;5095038;28;20021;-73
2023/10/27 07:02:04;;;;;;;21.73;3.53;;;23.50;99.90;;;;;;5094249;28;20028;-68
2023/10/27 07:04:31;;;;;;;22.73;2.97;;;23.40;99.90;;;;;;5077157;28;20433;-69
2023/10/27 07:06:57;;;;;;;20.65;2.63;;;23.50;99.90;;;;;;5073941;28;20028;-70
2023/10/27 07:09:23;;;;;;;27.48;2.95;;;23.60;99.90;;;;;;5073827;28;20056;-70
2023/10/27 07:11:49;;;;;;;24.80;3.92;;;23.50;99.90;;;;;;5087449;28;20108;-69
2023/10/27 07:14:17;;;;;;;17.13;2.97;;;23.30;99.90;;;;;;5094213;28;20040;-68
2023/10/27 07:16:43;;;;;;;26.05;4.32;;;23.50;99.90;;;;;;5094021;28;20016;-71
2023/10/27 07:19:11;;;;;;;24.05;3.78;;;23.60;99.90;;;;;;5092508;28;20028;-69
2023/10/27 07:21:38;;;;;;;25.15;3.40;;;23.50;99.90;;;;;;5075793;28;20112;-69
2023/10/27 07:24:04;;;;;;;28.73;4.25;;;23.80;99.90;;;;;;5086975;28;20158;-71
2023/10/27 07:26:30;;;;;;;;;;;24.50;99.90;;;;;;5075378;28;20016;-67
2023/10/27 07:28:56;;;;;;;28.60;4.15;;;24.90;99.90;;;;;;5087368;28;20398;-66
2023/10/27 07:31:22;;;;;;;25.10;3.97;;;25.20;99.90;;;;;;5073452;28;20032;-66
2023/10/27 07:33:48;;;;;;;24.67;3.50;;;25.50;99.90;;;;;;5073545;28;20021;-65
2023/10/27 07:36:15;;;;;;;26.42;3.92;;;25.80;99.90;;;;;;5073792;28;20034;-66
2023/10/27 07:38:41;;;;;;;28.60;4.68;;;26.10;99.90;;;;;;5073426;28;20016;-69
2023/10/27 07:41:08;;;;;;;29.95;4.47;;;26.20;99.90;;;;;;5080561;28;20038;-64
2023/10/27 07:43:36;;;;;;;26.63;4.07;;;26.20;99.90;;;;;;5093940;28;20031;-69
2023/10/27 07:46:03;;;;;;;31.85;4.35;;;26.20;99.90;;;;;;5093234;28;20024;-70
2023/10/27 07:48:29;;;;;;;31.17;4.43;;;26.30;99.90;;;;;;5093760;28;20097;-69
2023/10/27 07:50:58;;;;;;;26.05;4.13;;;26.40;99.90;;;;;;5093335;28;20376;-66
2023/10/27 07:53:26;;;;;;;41.85;4.90;;;26.60;99.90;;;;;;5092672;28;20055;-70
2023/10/27 07:55:52;;;;;;;38.33;5.05;;;26.30;99.90;;;;;;5074411;28;20028;-71
2023/10/27 07:58:18;;;;;;;37.50;5.75;;;26.30;99.90;;;;;;5074796;28;20027;-74
2023/10/27 08:00:44;;;;;;;51.63;6.28;;;25.70;99.90;;;;;;5093494;28;20118;-76
2023/10/27 08:03:11;;;;;;;48.47;6.60;;;25.70;99.90;;;;;;5094886;28;20068;-82
2023/10/27 08:05:37;;;;;;;37.35;5.63;;;25.40;99.90;;;;;;5076114;28;20028;-81
2023/10/27 08:08:03;;;;;;;54.40;7.15;;;25.40;99.90;;;;;;5093947;28;20028;-81
2023/10/27 08:10:30;;;;;;;41.25;6.32;;;24.70;99.90;;;;;;5090167;28;20024;-82
2023/10/27 08:12:56;;;;;;;;;;;24.60;99.90;;;;;;5094153;28;20024;-75
2023/10/27 08:15:23;;;;;;;65.95;7.47;;;24.50;99.90;;;;;;5093196;28;19904;-77
2023/10/27 08:17:49;;;;;;;57.10;6.78;;;24.40;99.90;;;;;;5093644;28;20055;-76
2023/10/27 08:20:16;;;;;;;59.63;7.10;;;24.50;99.90;;;;;;5093544;28;20040;-76
2023/10/27 08:22:43;;;;;;;59.22;7.80;;;24.90;99.90;;;;;;5093829;28;20104;-75
2023/10/27 08:25:09;;;;;;;58.92;7.28;;;25.20;99.90;;;;;;5092781;28;20455;-74
2023/10/27 08:27:35;;;;;;;54.63;6.53;;;25.40;99.90;;;;;;5093137;28;20020;-76
2023/10/27 08:30:02;;;;;;;64.40;8.65;;;25.60;99.90;;;;;;5093161;28;20162;-75
2023/10/27 08:32:28;;;;;;;82.00;8.25;;;25.80;99.90;;;;;;5092627;28;20118;-76
2023/10/27 08:34:55;;;;;;;70.18;8.10;;;25.60;99.90;;;;;;5075323;28;20483;-78
2023/10/27 08:37:21;;;;;;;65.63;8.32;;;25.50;99.90;;;;;;5072867;28;20032;-75
2023/10/27 08:39:49;;;;;;;83.70;8.60;;;25.60;99.90;;;;;;5072776;28;20025;-75
2023/10/27 08:42:15;;;;;;;65.50;7.75;;;25.60;99.90;;;;;;5089360;28;20380;-75
2023/10/27 08:44:42;;;;;;;;;;;25.40;99.90;;;;;;5092996;28;20107;-72
2023/10/27 08:47:08;;;;;;;57.95;7.15;;;25.30;99.90;;;;;;5092554;28;19904;-75
2023/10/27 08:49:35;;;;;;;;;;;25.20;99.90;;;;;;5089513;28;20036;-74
2023/10/27 08:52:02;;;;;;;73.78;7.38;;;25.10;99.90;;;;;;5053857;28;19974;-77
2023/10/27 08:54:32;;;;;;;73.72;8.82;;;24.90;99.90;;;;;;5056498;28;20024;-77
2023/10/27 08:56:58;;;;;;;84.55;8.95;;;25.10;99.90;;;;;;5053952;28;20412;-77
2023/10/27 08:59:24;;;;;;;74.97;7.90;;;25.10;99.90;;;;;;5074640;28;20028;-76
2023/10/27 09:01:50;;;;;;;68.10;7.40;;;25.00;99.90;;;;;;5092061;28;20103;-75
2023/10/27 09:04:23;;;;;;;78.70;8.13;;;25.00;99.90;;;;;;5092880;28;20432;-75
2023/10/27 09:06:49;;;;;;;65.47;7.85;;;25.00;99.90;;;;;;5073536;28;20158;-73
2023/10/27 09:09:15;;;;;;;69.22;7.75;;;25.00;99.90;;;;;;5083504;28;20078;-75
2023/10/27 09:11:49;;;;;;;73.93;8.02;;;25.20;99.90;;;;;;5073555;28;20127;-78
2023/10/27 09:14:30;;;;;;;89.47;9.50;;;25.30;99.90;;;;;;5092352;28;20093;-74
2023/10/27 09:17:07;;;;;;;66.70;7.53;;;25.50;99.90;;;;;;5091850;28;20111;-75
2023/10/27 09:19:34;;;;;;;71.60;7.05;;;25.80;99.90;;;;;;5091857;28;20499;-75
2023/10/27 09:22:01;;;;;;;55.25;7.65;;;26.20;99.90;;;;;;5052696;28;20048;-77
2023/10/27 09:24:29;;;;;;;67.00;7.47;;;26.40;99.90;;;;;;5051876;28;20051;-76
2023/10/27 09:26:57;;;;;;;72.60;8.18;;;26.40;99.90;;;;;;5051756;28;20102;-75
2023/10/27 09:29:24;;;;;;;60.25;7.20;;;26.60;99.90;;;;;;5052343;28;20360;-76
2023/10/27 09:31:50;;;;;;;;;;;26.50;99.90;;;;;;5051700;28;20069;-77
2023/10/27 09:34:24;;;;;;;65.15;7.25;;;26.30;99.90;;;;;;5051974;28;19904;-76
2023/10/27 09:36:56;;;;;;;60.38;7.72;;;26.40;99.90;;;;;;5052248;28;20029;-76
2023/10/27 09:39:23;;;;;;;77.13;7.50;;;26.40;99.90;;;;;;5051640;28;20416;-76
2023/10/27 09:42:02;;;;;;;60.55;7.20;;;26.60;99.90;;;;;;5051365;28;20029;-77
2023/10/27 09:45:04;;;;;;;73.30;7.00;;;26.70;99.90;;;;;;5052006;28;20025;-77
2023/10/27 09:47:46;;;;;;;63.95;7.88;;;27.10;99.90;;;;;;5049875;28;20094;-78
2023/10/27 09:50:24;;;;;;;82.80;8.20;;;27.20;99.90;;;;;;5049963;28;20554;-75
2023/10/27 09:52:51;;;;;;;68.55;8.45;;;27.10;99.90;;;;;;5051124;28;20386;-83
2023/10/27 09:55:18;;;;;;;;;;;26.90;99.90;;;;;;5053556;28;20033;-79
2023/10/27 09:57:46;;;;;;;67.28;7.70;;;26.80;99.90;;;;;;5051958;28;19904;-77
2023/10/27 10:00:18;;;;;;;60.88;6.97;;;26.70;99.90;;;;;;5051914;28;20104;-79
2023/10/27 10:02:45;;;;;;;76.43;7.53;;;26.40;99.90;;;;;;5051100;28;20021;-77
2023/10/27 10:05:11;;;;;;;64.70;7.63;;;26.40;99.90;;;;;;5051137;28;20025;-78
2023/10/27 10:07:44;;;;;;;75.35;8.48;;;26.20;99.90;;;;;;5051511;28;20031;-75
2023/10/27 10:10:29;;;;;;;66.35;8.15;;;26.30;99.90;;;;;;5051109;28;20036;-78
2023/10/27 10:13:14;;;;;;;65.43;7.53;;;26.40;99.90;;;;;;5049308;28;20135;-74
2023/10/27 10:15:42;;;;;;;77.90;8.23;;;26.60;99.90;;;;;;5049044;28;20268;-77
2023/10/27 10:18:29;;;;;;;74.50;7.70;;;26.60;99.90;;;;;;5050770;28;20025;-74
2023/10/27 10:20:57;;;;;;;68.10;6.68;;;26.40;99.90;;;;;;5048154;28;20132;-78
2023/10/27 10:23:46;;;;;;;64.22;7.20;;;26.20;99.90;;;;;;5050286;28;20488;-73
2023/10/27 10:26:12;;;;;;;69.57;7.45;;;26.10;99.90;;;;;;5050059;28;20377;-78
2023/10/27 10:28:47;;;;;;;73.80;8.20;;;26.10;99.90;;;;;;5051327;28;20118;-81
2023/10/27 10:31:21;;;;;;;80.53;7.50;;;26.10;99.90;;;;;;5052242;28;20499;-79
2023/10/27 10:33:48;;;;;;;86.45;8.68;;;26.40;99.90;;;;;;5057966;28;20028;-78
2023/10/27 10:36:14;;;;;;;62.85;7.03;;;26.50;99.90;;;;;;5058486;28;20025;-79
2023/10/27 10:38:45;;;;;;;66.13;6.97;;;26.70;99.90;;;;;;5055684;28;20079;-78
2023/10/27 10:41:13;;;;;;;72.68;7.70;;;26.90;99.90;;;;;;5048134;28;20028;-79
2023/10/27 10:43:41;;;;;;;82.32;8.88;;;26.90;99.90;;;;;;5040573;28;20080;-77
2023/10/27 10:46:13;;;;;;;75.57;7.22;;;26.90;99.90;;;;;;5034458;28;20025;-78
2023/10/27 10:48:47;;;;;;;75.35;7.55;;;26.80;99.90;;;;;;5034441;28;20322;-78
2023/10/27 10:51:15;;;;;;;83.15;8.60;;;26.70;99.90;;;;;;5034558;28;20095;-80
2023/10/27 10:53:52;;;;;;;57.53;7.10;;;26.80;99.90;;;;;;5033008;28;20120;-81
2023/10/27 10:56:19;;;;;;;82.20;8.05;;;26.90;99.90;;;;;;5034538;28;20025;-80
2023/10/27 10:58:45;;;;;;;;;;;27.10;99.90;;;;;;5034306;28;20063;-79
2023/10/27 11:01:19;;;;;;;69.63;7.18;;;27.40;99.90;;;;;;5034000;28;19916;-79
2023/10/27 11:03:53;;;;;;;78.35;7.45;;;27.60;99.90;;;;;;5034041;28;20033;-80
2023/10/27 11:06:28;;;;;;;78.85;7.95;;;27.40;99.90;;;;;;5034098;28;20029;-78
2023/10/27 11:08:54;;;;;;;61.17;7.65;;;27.30;99.90;;;;;;5034509;28;20092;-77
2023/10/27 11:11:20;;;;;;;;;;;27.10;99.90;;;;;;5043206;28;20473;-76
2023/10/27 11:13:53;;;;;;;72.05;7.65;;;26.70;99.90;;;;;;5054037;28;19908;-76
2023/10/27 11:16:23;;;;;;;91.35;8.45;;;26.70;99.90;;;;;;5053447;28;20021;-77
2023/10/27 11:18:57;;;;;;;63.50;7.30;;;26.90;99.90;;;;;;5054405;28;20040;-76
2023/10/27 11:21:29;;;;;;;66.85;7.35;;;27.20;99.90;;;;;;5079029;28;20123;-75
2023/10/27 11:23:56;;;;;;;61.63;6.38;;;27.30;99.90;;;;;;5094648;28;20068;-75
2023/10/27 11:26:26;;;;;;;72.70;6.82;;;27.40;99.90;;;;;;5075909;28;20097;-75
2023/10/27 11:28:56;;;;;;;67.32;7.20;;;27.30;99.90;;;;;;5094055;28;20031;-76
2023/10/27 11:31:22;;;;;;;72.45;7.57;;;27.20;99.90;;;;;;5094074;28;20028;-75
2023/10/27 11:33:59;;;;;;;79.72;7.03;;;26.90;99.90;;;;;;5094531;28;20099;-75
2023/10/27 11:36:27;;;;;;;56.97;7.05;;;26.70;99.90;;;;;;5094556;28;20085;-75
2023/10/27 11:38:53;;;;;;;60.92;6.78;;;26.50;99.90;;;;;;5075971;28;20129;-75
2023/10/27 11:41:19;;;;;;;70.40;7.30;;;26.00;99.90;;;;;;5093639;28;20031;-76
2023/10/27 11:43:45;;;;;;;72.72;6.30;;;26.00;99.90;;;;;;5094246;28;20085;-76
2023/10/27 11:46:15;;;;;;;;;;;26.10;99.90;;;;;;5094500;28;20052;-77
2023/10/27 11:48:42;;;;;;;57.90;5.72;;;26.30;99.90;;;;;;5094131;28;20377;-75
2023/10/27 11:51:09;;;;;;;71.18;7.43;;;26.30;99.90;;;;;;5094276;28;20366;-77
2023/10/27 11:53:40;;;;;;;76.82;7.43;;;26.40;99.90;;;;;;5089116;28;20024;-74
2023/10/27 11:56:08;;;;;;;64.60;6.70;;;26.70;99.90;;;;;;5075775;28;20523;-74
2023/10/27 11:58:35;;;;;;;59.65;6.07;;;26.80;99.90;;;;;;5075995;28;20059;-72
2023/10/27 12:01:01;;;;;;;69.38;6.68;;;26.90;99.90;;;;;;5065804;28;20036;-75
2023/10/27 12:03:28;;;;;;;65.35;6.70;;;26.80;99.90;;;;;;5078125;28;20074;-74
2023/10/27 12:05:54;;;;;;;71.10;6.43;;;26.90;99.90;;;;;;5073625;28;20064;-74
2023/10/27 12:08:21;;;;;;;62.00;6.20;;;27.20;99.90;;;;;;5073834;28;20036;-75
2023/10/27 12:10:53;;;;;;;49.58;6.18;;;26.90;99.90;;;;;;5078047;28;20035;-74
2023/10/27 12:13:20;;;;;;;53.47;6.20;;;26.90;99.90;;;;;;5094570;28;20563;-75
2023/10/27 12:15:47;;;;;;;55.08;6.25;;;26.80;99.90;;;;;;5094653;28;20031;-75
2023/10/27 12:18:19;;;;;;;50.35;5.40;;;27.40;99.90;;;;;;5093978;28;20020;-75
2023/10/27 12:20:46;;;;;;;43.40;5.47;;;27.70;99.90;;;;;;5093739;28;20043;-75
2023/10/27 12:23:12;;;;;;;37.28;4.32;;;28.10;99.90;;;;;;5093363;28;20020;-75
2023/10/27 12:25:39;;;;;;;56.63;5.63;;;28.10;99.90;;;;;;5092925;28;20038;-75
2023/10/27 12:28:07;;;;;;;46.70;5.43;;;28.00;99.90;;;;;;5093165;28;20031;-73
2023/10/27 12:30:35;;;;;;;49.47;6.07;;;28.10;99.90;;;;;;5092950;28;20020;-75
2023/10/27 12:33:03;;;;;;;42.97;5.55;;;28.10;99.90;;;;;;5092746;28;20077;-75
2023/10/27 12:35:33;;;;;;;54.42;5.97;;;28.30;99.90;;;;;;5092836;28;20032;-76
2023/10/27 12:38:01;;;;;;;55.08;6.25;;;28.50;99.90;;;;;;5093473;28;20026;-75
2023/10/27 12:40:27;;;;;;;59.15;5.88;;;28.30;99.90;;;;;;5093863;28;20479;-74
2023/10/27 12:42:53;;;;;;;52.08;6.68;;;28.30;99.90;;;;;;5094123;28;20130;-74